Huvudsida
METAR-TAF:

METAR-TAF

Flygplatser :

Florø flygplats

Florø, Norge

latitud: 61-35N, longitud: 005-02E, höjd: 0 m

Aktuellt väderrapport

Denna rapport gjordes för 19 minuter sedan, klockan 17:20 UTC
Vind 19 kt från nordväst
Temperatur 10°C
Fuktighet 87%
Tryck 995 hPa
Sikt 10 km eller mer
lätta regnskurar

METAR: ENFL 221720Z AUTO 32019KT 9999NDV -SHRA FEW020/// SCT041/// BKN054/// 10/08 Q0995

Tid: 19:39 (17:39 UTC)

Väderprognos

Denna rapport gjordes för 22 timmar och 41 minuter sedan, klockan 18:58 UTC
Prognos gäller från 21 kl. 18 UTC till 21 kl. 20 UTC
Vind 25 kt från nord/nordväst i byarna ända upp till 38 kt
Sikt 10 km eller mer
Spridda moln på en höjd av 1500 ft
Brutna moln på en höjd av 3000 ft
lätt regn
Temporärt
från 21 kl. 18 UTC till 21 kl. 20 UTC
regn

TAF: ENFL 211858Z 2118/2120 34025G38KT 9999 -RA SCT015 BKN030 TEMPO 2118/2120 RA

Aktuella väderrapporter och prognoser från 4000 flygplatser (METAR- och TAF-rapporter).

De tillgängliga stationerna syns som gula och röda prickar på kartan.

För musen över prickarna för att se namnen på stationerna.

Klicka sedan för att få väderrapporter och prognoser.

För att ändra kartan: Klicka på de gröna knapparna med ett svart kors på för att zooma in; den gröna knappen med ett streck på för att zooma ut; eller på de gröna pilarna för angränsande kartor.


METAR-TAF: